Time;durP1;ratioP1;P1;durP2;ratioP2;P2;SDS_P1;SDS_P2;PMS_P1;PMS_P2;Temp;Humidity;BMP_temperature;BMP_pressure;BME280_temperature;BME280_humidity;BME280_pressure;Samples;Min_cycle;Max_cycle;Signal;HPM_P1;HPM_P2
2022/10/14 00:02:19;;;;;;;11.23;8.23;;;17.80;83.30;;;-142.21;100.00;112049.66;5092184;28;20533;-68
2022/10/14 00:04:46;;;;;;;11.13;8.33;;;17.90;83.40;;;-142.21;100.00;112049.66;5092712;28;20483;-70
2022/10/14 00:07:13;;;;;;;10.77;8.77;;;17.80;83.30;;;-142.21;100.00;112049.66;5091555;28;20443;-70
2022/10/14 00:09:41;;;;;;;12.50;8.60;;;17.80;83.20;;;-142.21;100.00;112049.66;5092685;28;20438;-70
2022/10/14 00:12:08;;;;;;;11.67;8.97;;;17.90;83.40;;;-142.21;100.00;112049.66;5091963;28;20449;-68
2022/10/14 00:14:35;;;;;;;10.87;9.17;;;17.90;83.50;;;-142.21;100.00;112049.66;5092425;28;20474;-69
2022/10/14 00:17:02;;;;;;;11.40;8.63;;;17.80;83.50;;;-142.21;100.00;112049.66;5091073;28;20442;-71
2022/10/14 00:19:30;;;;;;;13.13;9.00;;;17.90;83.60;;;-142.21;100.00;112049.66;5092382;28;20427;-70
2022/10/14 00:22:00;;;;;;;11.43;8.70;;;17.80;83.60;;;-142.21;100.00;112049.66;5092302;28;20817;-68
2022/10/14 00:24:27;;;;;;;10.53;8.50;;;17.80;84.00;;;-142.21;100.00;112049.66;5092152;28;20485;-69
2022/10/14 00:26:54;;;;;;;11.03;9.13;;;17.70;84.10;;;-142.21;100.00;112049.66;5092423;28;20799;-70
2022/10/14 00:29:21;;;;;;;13.63;8.80;;;17.70;84.30;;;-142.21;100.00;112049.66;5091639;28;20466;-69
2022/10/14 00:31:50;;;;;;;11.00;8.87;;;17.70;84.10;;;-142.21;100.00;112049.66;5092249;28;20451;-69
2022/10/14 00:34:17;;;;;;;9.97;8.73;;;17.80;84.00;;;-142.21;100.00;112049.66;5091333;28;20451;-70
2022/10/14 00:36:46;;;;;;;9.57;8.47;;;17.80;84.00;;;-142.21;100.00;112049.66;5092095;28;20533;-69
2022/10/14 00:39:13;;;;;;;11.67;8.60;;;17.80;83.90;;;-142.21;100.00;112049.66;5091741;28;20809;-69
2022/10/14 00:41:44;;;;;;;10.53;8.53;;;17.80;84.00;;;-142.21;100.00;112049.66;5092192;28;20450;-68
2022/10/14 00:45:02;;;;;;;9.90;8.90;;;17.90;84.30;;;-142.21;100.00;112049.66;5091727;28;20474;-69
2022/10/14 00:47:30;;;;;;;10.43;8.47;;;17.90;84.30;;;-142.21;100.00;112049.66;5092160;28;20518;-69
2022/10/14 00:49:59;;;;;;;13.07;8.97;;;17.80;84.10;;;-142.21;100.00;112049.66;5091548;28;20442;-69
2022/10/14 00:52:28;;;;;;;9.97;8.97;;;17.80;84.10;;;-142.21;100.00;112049.66;5091696;28;20438;-69
2022/10/14 00:55:01;;;;;;;11.40;10.17;;;17.80;84.30;;;-142.21;100.00;112049.66;5091978;28;20445;-69
2022/10/14 00:57:30;;;;;;;11.57;9.30;;;17.80;84.40;;;-142.21;100.00;112049.66;5092188;28;20427;-69
2022/10/14 01:00:04;;;;;;;10.57;9.37;;;17.80;84.50;;;-142.21;100.00;112049.66;5091560;28;20449;-69
2022/10/14 01:02:31;;;;;;;11.57;10.00;;;17.80;84.60;;;-142.21;100.00;112049.66;5091952;28;20462;-69
2022/10/14 01:05:01;;;;;;;12.07;9.07;;;17.70;84.40;;;-142.21;100.00;112049.66;5091347;28;20486;-68
2022/10/14 01:07:43;;;;;;;13.73;9.97;;;17.70;84.60;;;-142.21;100.00;112049.66;5091630;28;20529;-69
2022/10/14 01:10:24;;;;;;;15.00;9.33;;;17.70;84.90;;;-142.21;100.00;112049.66;5091320;28;20431;-68
2022/10/14 01:13:06;;;;;;;12.37;8.80;;;17.70;85.00;;;-142.21;100.00;112049.66;5091702;28;20422;-69
2022/10/14 01:15:41;;;;;;;13.83;9.20;;;17.70;84.90;;;-142.21;100.00;112049.66;5091829;28;20457;-68
2022/10/14 01:18:24;;;;;;;13.83;8.70;;;17.60;84.90;;;-142.21;100.00;112049.66;5090351;28;20993;-69
2022/10/14 01:21:11;;;;;;;11.37;8.77;;;17.60;85.20;;;-142.21;100.00;112049.66;5091848;28;20517;-70
2022/10/14 01:24:24;;;;;;;15.83;8.27;;;17.50;85.30;;;-142.21;100.00;112049.66;5091707;28;20558;-69
2022/10/14 01:27:13;;;;;;;10.93;8.87;;;17.60;85.40;;;-142.21;100.00;112049.66;5074622;28;20468;-70
2022/10/14 01:30:10;;;;;;;11.80;8.47;;;17.60;85.00;;;-142.21;100.00;112049.66;5091356;28;20462;-70
2022/10/14 01:32:52;;;;;;;11.03;8.13;;;17.60;85.90;;;-142.21;100.00;112049.66;5091332;28;20447;-70
2022/10/14 01:35:37;;;;;;;12.00;8.63;;;17.50;85.00;;;-142.21;100.00;112049.66;5090587;28;20450;-70
2022/10/14 01:38:11;;;;;;;15.53;8.60;;;17.50;85.10;;;-142.21;100.00;112049.66;5091452;28;20453;-70
2022/10/14 01:40:48;;;;;;;14.53;8.47;;;17.50;85.00;;;-142.21;100.00;112049.66;5091755;28;20437;-70
2022/10/14 01:43:19;;;;;;;9.43;7.90;;;17.60;85.20;;;-142.21;100.00;112049.66;5090504;28;20427;-70
2022/10/14 01:45:51;;;;;;;11.53;8.43;;;17.60;85.10;;;-142.21;100.00;112049.66;5091338;28;20419;-68
2022/10/14 01:48:26;;;;;;;11.17;8.47;;;17.60;84.90;;;-142.21;100.00;112049.66;5090310;28;20423;-69
2022/10/14 01:50:58;;;;;;;10.47;8.30;;;17.70;84.90;;;-142.21;100.00;112049.66;5091275;28;20426;-68
2022/10/14 01:53:32;;;;;;;10.17;8.03;;;17.70;85.60;;;-142.21;100.00;112049.66;5090692;28;20431;-69
2022/10/14 01:56:02;;;;;;;11.73;8.10;;;17.70;84.80;;;-142.21;100.00;112049.66;5091136;28;20430;-68
2022/10/14 01:58:34;;;;;;;8.53;7.60;;;17.70;84.80;;;-142.21;100.00;112049.66;5090603;28;21008;-70
2022/10/14 02:01:05;;;;;;;12.80;8.13;;;17.70;84.80;;;-142.21;100.00;112049.66;5091233;28;20800;-69
2022/10/14 02:03:41;;;;;;;10.33;7.97;;;17.70;84.80;;;-142.21;100.00;112049.66;5090735;28;20881;-69
2022/10/14 02:06:18;;;;;;;8.90;8.00;;;17.80;84.80;;;-142.21;100.00;112049.66;5090889;28;20477;-70
2022/10/14 02:09:08;;;;;;;9.43;7.43;;;17.80;84.80;;;-142.21;100.00;112049.66;5091179;28;20890;-69
2022/10/14 02:11:47;;;;;;;9.17;7.60;;;17.70;84.90;;;-142.21;100.00;112049.66;5091286;28;20438;-70
2022/10/14 02:14:31;;;;;;;9.40;7.80;;;17.60;85.10;;;-142.21;100.00;112049.66;5090537;28;20429;-67
2022/10/14 02:17:07;;;;;;;11.00;7.67;;;17.50;85.50;;;-142.21;100.00;112049.66;5090183;28;20437;-70
2022/10/14 02:19:46;;;;;;;12.10;7.60;;;17.40;85.70;;;-142.21;100.00;112049.66;5091043;28;20525;-70
2022/10/14 02:22:25;;;;;;;16.20;7.90;;;17.40;85.70;;;-142.21;100.00;112049.66;5090033;28;20924;-70
2022/10/14 02:24:57;;;;;;;13.20;7.77;;;17.40;85.70;;;-142.21;100.00;112049.66;5090843;28;20466;-70
2022/10/14 02:27:28;;;;;;;10.93;8.67;;;17.50;85.60;;;-142.21;100.00;112049.66;5090460;28;20458;-70
2022/10/14 02:29:59;;;;;;;10.27;7.60;;;17.50;85.30;;;-142.21;100.00;112049.66;5089815;28;20493;-70
2022/10/14 02:32:28;;;;;;;8.93;7.33;;;17.60;85.10;;;-142.21;100.00;112049.66;5089976;28;20446;-69
2022/10/14 02:34:59;;;;;;;13.63;7.77;;;17.60;84.80;;;-142.21;100.00;112049.66;5091092;28;20473;-68
2022/10/14 02:37:29;;;;;;;13.00;7.63;;;17.60;84.70;;;-142.21;100.00;112049.66;5090334;28;20506;-69
2022/10/14 02:40:05;;;;;;;9.27;7.80;;;17.60;84.60;;;-142.21;100.00;112049.66;5091880;28;20942;-68
2022/10/14 02:42:32;;;;;;;11.33;7.27;;;17.60;84.50;;;-142.21;100.00;112049.66;5093952;28;20430;-69
2022/10/14 02:45:02;;;;;;;13.23;6.93;;;17.60;84.40;;;-142.21;100.00;112049.66;5093723;28;20644;-69
2022/10/14 02:47:30;;;;;;;11.63;7.97;;;17.60;84.40;;;-142.21;100.00;112049.66;5093979;28;20457;-69
2022/10/14 02:49:57;;;;;;;8.20;7.40;;;17.60;84.70;;;-142.21;100.00;112049.66;5094096;28;21101;-69
2022/10/14 02:52:25;;;;;;;9.97;7.77;;;17.60;84.80;;;-142.21;100.00;112049.66;5093660;28;20978;-69
2022/10/14 02:54:52;;;;;;;7.70;6.90;;;17.60;85.00;;;-142.21;100.00;112049.66;5094517;28;20525;-69
2022/10/14 02:57:19;;;;;;;10.30;8.13;;;17.60;85.00;;;-142.21;100.00;112049.66;5093389;28;20537;-69
2022/10/14 02:59:46;;;;;;;9.07;7.37;;;17.60;84.80;;;-142.21;100.00;112049.66;5093541;28;20446;-69
2022/10/14 03:02:14;;;;;;;10.33;6.80;;;17.60;84.60;;;-142.21;100.00;112049.66;5093673;28;20469;-69
2022/10/14 03:04:42;;;;;;;11.27;6.57;;;17.50;84.50;;;-142.21;100.00;112049.66;5093694;28;20486;-69
2022/10/14 03:07:10;;;;;;;10.20;6.50;;;17.50;84.50;;;-142.21;100.00;112049.66;5093744;28;20446;-69
2022/10/14 03:09:39;;;;;;;10.60;6.97;;;17.50;84.30;;;-142.21;100.00;112049.66;5093927;28;20560;-69
2022/10/14 03:12:07;;;;;;;7.63;6.77;;;17.50;84.10;;;-142.21;100.00;112049.66;5093999;28;20503;-69
2022/10/14 03:14:34;;;;;;;8.93;6.60;;;17.50;83.90;;;-142.21;100.00;112049.66;5093127;28;20801;-69
2022/10/14 03:17:01;;;;;;;9.67;7.10;;;17.50;83.80;;;-142.21;100.00;112049.66;5093573;28;20444;-69
2022/10/14 03:19:28;;;;;;;10.20;7.33;;;17.50;83.80;;;-142.21;100.00;112049.66;5093034;28;20423;-69
2022/10/14 03:21:57;;;;;;;8.83;6.70;;;17.40;83.60;;;-142.21;100.00;112049.66;5093968;28;20453;-69
2022/10/14 03:24:24;;;;;;;7.50;6.23;;;17.40;83.70;;;-142.21;100.00;112049.66;5092845;28;20484;-69
2022/10/14 03:26:54;;;;;;;10.17;6.77;;;17.40;83.70;;;-142.21;100.00;112049.66;5093408;28;20442;-69
2022/10/14 03:29:21;;;;;;;8.07;6.43;;;17.40;83.70;;;-142.21;100.00;112049.66;5092888;28;20458;-69
2022/10/14 03:31:48;;;;;;;9.13;6.60;;;17.40;83.60;;;-142.21;100.00;112049.66;5093388;28;20952;-69
2022/10/14 03:34:15;;;;;;;9.47;6.73;;;17.40;83.60;;;-142.21;100.00;112049.66;5092823;28;21073;-69
2022/10/14 03:36:43;;;;;;;8.73;6.30;;;17.40;83.70;;;-142.21;100.00;112049.66;5093688;28;20466;-69
2022/10/14 03:39:12;;;;;;;10.97;6.83;;;17.40;83.70;;;-142.21;100.00;112049.66;5093288;28;20446;-69
2022/10/14 03:41:39;;;;;;;6.90;5.93;;;17.30;83.60;;;-142.21;100.00;112049.66;5093215;28;20856;-69
2022/10/14 03:44:06;;;;;;;7.17;6.27;;;17.30;83.70;;;-142.21;100.00;112049.66;5093193;28;20438;-69
2022/10/14 03:46:33;;;;;;;7.97;6.43;;;17.40;83.80;;;-142.21;100.00;112049.66;5092322;28;20447;-69
2022/10/14 03:49:00;;;;;;;8.67;6.40;;;17.40;83.90;;;-142.21;100.00;112049.66;5093281;28;20473;-69
2022/10/14 03:51:27;;;;;;;8.07;6.30;;;17.40;83.90;;;-142.21;100.00;112049.66;5092465;28;20448;-69
2022/10/14 03:53:55;;;;;;;8.80;6.00;;;17.40;83.80;;;-142.21;100.00;112049.66;5093125;28;20525;-69
2022/10/14 03:56:23;;;;;;;7.33;6.63;;;17.30;83.60;;;-142.21;100.00;112049.66;5092322;28;20836;-69
2022/10/14 03:58:51;;;;;;;7.87;6.00;;;17.40;83.70;;;-142.21;100.00;112049.66;5092817;28;20931;-69
2022/10/14 04:01:18;;;;;;;8.63;6.50;;;17.40;83.70;;;-142.21;100.00;112049.66;5092332;28;20507;-69
2022/10/14 04:03:45;;;;;;;7.60;6.73;;;17.30;83.60;;;-142.21;100.00;112049.66;5093061;28;20485;-69
2022/10/14 04:06:13;;;;;;;6.90;5.67;;;17.30;83.70;;;-142.21;100.00;112049.66;5092387;28;20489;-69
2022/10/14 04:08:40;;;;;;;8.83;5.77;;;17.30;83.80;;;-142.21;100.00;112049.66;5092730;28;20449;-69
2022/10/14 04:11:07;;;;;;;6.57;5.67;;;17.30;83.80;;;-142.21;100.00;112049.66;5092161;28;20529;-69
2022/10/14 04:13:36;;;;;;;8.00;6.13;;;17.30;83.80;;;-142.21;100.00;112049.66;5091943;28;20446;-69
2022/10/14 04:16:04;;;;;;;8.93;5.93;;;17.30;83.70;;;-142.21;100.00;112049.66;5092593;28;20438;-69
2022/10/14 04:18:31;;;;;;;6.83;5.90;;;17.30;83.70;;;-142.21;100.00;112049.66;5091764;28;21105;-69
2022/10/14 04:21:01;;;;;;;7.47;5.70;;;17.20;84.30;;;-142.21;100.00;112049.66;5092705;28;20446;-69
2022/10/14 04:23:28;;;;;;;7.37;5.67;;;17.20;84.30;;;-142.21;100.00;112049.66;5092149;28;20464;-69
2022/10/14 04:25:55;;;;;;;6.27;5.60;;;17.20;83.40;;;-142.21;100.00;112049.66;5092078;28;20486;-69
2022/10/14 04:28:22;;;;;;;6.93;5.80;;;17.20;83.40;;;-142.21;100.00;112049.66;5092002;28;20520;-69
2022/10/14 04:30:51;;;;;;;5.47;4.93;;;17.10;83.40;;;-142.21;100.00;112049.66;5115769;28;20454;-69
2022/10/14 04:33:18;;;;;;;6.97;5.70;;;17.10;83.20;;;-142.21;100.00;112049.66;5116480;28;20446;-69
2022/10/14 04:35:45;;;;;;;9.60;6.00;;;17.10;83.10;;;-142.21;100.00;112049.66;5116766;28;20445;-69
2022/10/14 04:38:12;;;;;;;8.13;5.10;;;17.10;83.00;;;-142.21;100.00;112049.66;5103526;28;20470;-68
2022/10/14 04:40:40;;;;;;;6.13;4.90;;;17.10;83.00;;;-142.21;100.00;112049.66;5091945;28;20517;-69
2022/10/14 04:43:07;;;;;;;6.53;5.23;;;17.00;82.90;;;-142.21;100.00;112049.66;5092343;28;20803;-70
2022/10/14 04:45:34;;;;;;;7.63;5.07;;;17.00;82.60;;;-142.21;100.00;112049.66;5091390;28;20477;-69
2022/10/14 04:48:02;;;;;;;8.27;5.57;;;17.00;82.60;;;-142.21;100.00;112049.66;5092071;28;20446;-69
2022/10/14 04:50:30;;;;;;;8.43;5.63;;;16.90;82.40;;;-142.21;100.00;112049.66;5091411;28;20439;-69
2022/10/14 04:52:57;;;;;;;8.97;5.70;;;16.90;82.40;;;-142.21;100.00;112049.66;5092373;28;20453;-69
2022/10/14 04:55:24;;;;;;;9.17;5.30;;;16.90;82.40;;;-142.21;100.00;112049.66;5091082;28;20796;-69
2022/10/14 04:57:51;;;;;;;6.27;5.07;;;16.90;82.40;;;-142.21;100.00;112049.66;5091979;28;20448;-68
2022/10/14 05:00:18;;;;;;;8.30;5.80;;;16.90;82.50;;;-142.21;100.00;112049.66;5091420;28;20438;-69
2022/10/14 05:02:46;;;;;;;5.50;5.00;;;16.90;82.60;;;-142.21;100.00;112049.66;5091017;28;20446;-69
2022/10/14 05:05:15;;;;;;;6.23;5.50;;;16.90;82.70;;;-142.21;100.00;112049.66;5092137;28;20482;-69
2022/10/14 05:07:42;;;;;;;8.03;5.03;;;16.90;82.60;;;-142.21;100.00;112049.66;5092022;28;20442;-69
2022/10/14 05:10:10;;;;;;;8.27;5.23;;;16.80;82.60;;;-142.21;100.00;112049.66;5091277;28;20442;-69
2022/10/14 05:12:38;;;;;;;6.23;5.07;;;16.80;82.80;;;-142.21;100.00;112049.66;5091443;28;20478;-68
2022/10/14 05:15:10;;;;;;;7.50;5.03;;;16.80;82.80;;;-142.21;100.00;112049.66;5091452;28;20438;-67
2022/10/14 05:17:38;;;;;;;9.27;4.77;;;16.80;82.70;;;-142.21;100.00;112049.66;5090706;28;21025;-68
2022/10/14 05:20:07;;;;;;;9.33;5.23;;;16.70;82.40;;;-142.21;100.00;112049.66;5091555;28;20443;-69
2022/10/14 05:22:35;;;;;;;6.97;5.17;;;16.70;82.40;;;-142.21;100.00;112049.66;5091170;28;20471;-69
2022/10/14 05:25:02;;;;;;;5.57;5.07;;;16.70;82.30;;;-142.21;100.00;112049.66;5090929;28;20485;-68
2022/10/14 05:27:29;;;;;;;6.87;4.97;;;16.70;82.50;;;-142.21;100.00;112049.66;5091154;28;20445;-69
2022/10/14 05:29:57;;;;;;;6.87;5.10;;;16.60;82.30;;;-142.21;100.00;112049.66;5091324;28;20458;-68
2022/10/14 05:32:24;;;;;;;7.47;5.20;;;16.70;82.40;;;-142.21;100.00;112049.66;5091033;28;20536;-68
2022/10/14 05:34:51;;;;;;;7.77;5.60;;;16.70;82.50;;;-142.21;100.00;112049.66;5091683;28;20450;-68
2022/10/14 05:37:18;;;;;;;7.53;4.87;;;16.70;82.50;;;-142.21;100.00;112049.66;5090689;28;20481;-68
2022/10/14 05:39:47;;;;;;;5.80;5.20;;;16.70;82.50;;;-142.21;100.00;112049.66;5091462;28;20470;-68
2022/10/14 05:42:17;;;;;;;6.63;5.37;;;16.70;82.60;;;-142.21;100.00;112049.66;5091262;28;20945;-68
2022/10/14 05:44:44;;;;;;;7.40;5.50;;;16.70;82.70;;;-142.21;100.00;112049.66;5091331;28;20798;-68
2022/10/14 05:47:11;;;;;;;8.20;5.13;;;16.60;82.70;;;-142.21;100.00;112049.66;5091499;28;20446;-68
2022/10/14 05:49:38;;;;;;;7.13;5.53;;;16.70;83.00;;;-142.21;100.00;112049.66;5090836;28;20520;-68
2022/10/14 05:52:05;;;;;;;6.37;4.70;;;16.70;83.00;;;-142.21;100.00;112049.66;5090959;28;20478;-68
2022/10/14 05:54:33;;;;;;;6.50;5.70;;;16.70;83.00;;;-142.21;100.00;112049.66;5090557;28;20473;-68
2022/10/14 05:57:01;;;;;;;5.80;5.20;;;16.70;83.80;;;-142.21;100.00;112049.66;5091047;28;20442;-68
2022/10/14 05:59:29;;;;;;;7.13;5.23;;;16.70;83.10;;;-142.21;100.00;112049.66;5090318;28;20478;-69
2022/10/14 06:01:56;;;;;;;8.87;5.10;;;16.70;83.10;;;-142.21;100.00;112049.66;5091400;28;20449;-68
2022/10/14 06:04:23;;;;;;;5.17;4.47;;;16.80;83.30;;;-142.21;100.00;112049.66;5090217;28;20938;-68
2022/10/14 06:06:50;;;;;;;5.50;5.00;;;16.80;83.30;;;-142.21;100.00;112049.66;5090503;28;21064;-68
2022/10/14 06:09:18;;;;;;;6.50;5.23;;;16.90;83.50;;;-142.21;100.00;112049.66;5091361;28;20478;-68
2022/10/14 06:11:46;;;;;;;6.67;5.57;;;16.80;83.40;;;-142.21;100.00;112049.66;5090884;28;20470;-68
2022/10/14 06:14:14;;;;;;;8.57;6.20;;;16.90;83.60;;;-142.21;100.00;112049.66;5091196;28;20442;-67
2022/10/14 06:16:41;;;;;;;6.80;6.07;;;16.90;83.50;;;-142.21;100.00;112049.66;5094409;28;20499;-69
2022/10/14 06:19:08;;;;;;;6.30;5.63;;;16.90;83.70;;;-142.21;100.00;112049.66;5094553;28;20513;-69
2022/10/14 06:21:35;;;;;;;6.47;4.80;;;17.00;83.70;;;-142.21;100.00;112049.66;5093743;28;20756;-69
2022/10/14 06:24:03;;;;;;;8.27;5.77;;;17.00;83.70;;;-142.21;100.00;112049.66;5095046;28;20477;-69
2022/10/14 06:26:30;;;;;;;6.40;5.50;;;17.00;83.80;;;-142.21;100.00;112049.66;5085742;28;20479;-69
2022/10/14 06:28:58;;;;;;;7.43;5.53;;;17.00;83.80;;;-142.21;100.00;112049.66;5074361;28;21034;-69
2022/10/14 06:31:26;;;;;;;6.93;5.87;;;17.00;83.90;;;-142.21;100.00;112049.66;5074107;28;20534;-68
2022/10/14 06:33:53;;;;;;;7.97;5.77;;;17.10;84.10;;;-142.21;100.00;112049.66;5074181;28;20546;-67
2022/10/14 06:36:21;;;;;;;6.53;5.87;;;17.10;84.10;;;-142.21;100.00;112049.66;5073631;28;20466;-69
2022/10/14 06:38:48;;;;;;;7.33;5.50;;;17.20;84.40;;;-142.21;100.00;112049.66;5056479;28;20453;-69
2022/10/14 06:41:15;;;;;;;7.13;5.80;;;17.20;84.40;;;-142.21;100.00;112049.66;5074040;28;20526;-68
2022/10/14 06:43:43;;;;;;;7.07;5.40;;;17.20;84.50;;;-142.21;100.00;112049.66;5073748;28;20455;-68
2022/10/14 06:46:10;;;;;;;6.73;5.50;;;17.30;84.20;;;-142.21;100.00;112049.66;5073923;28;20483;-68
2022/10/14 06:48:39;;;;;;;5.90;5.33;;;17.30;84.00;;;-142.21;100.00;112049.66;5073493;28;20493;-69
2022/10/14 06:51:06;;;;;;;6.83;4.80;;;17.30;84.10;;;-142.21;100.00;112049.66;5073885;28;20443;-69
2022/10/14 06:53:34;;;;;;;6.33;5.10;;;17.40;84.20;;;-142.21;100.00;112049.66;5073555;28;20501;-69
2022/10/14 06:56:05;;;;;;;5.30;4.80;;;17.40;84.20;;;-142.21;100.00;112049.66;5074139;28;20522;-68
2022/10/14 06:58:33;;;;;;;6.37;5.47;;;17.50;84.10;;;-142.21;100.00;112049.66;5073575;28;20432;-69
2022/10/14 07:01:02;;;;;;;5.73;5.23;;;17.50;83.90;;;-142.21;100.00;112049.66;5073958;28;20443;-69
2022/10/14 07:03:30;;;;;;;6.70;4.60;;;17.60;83.50;;;-142.21;100.00;112049.66;5073061;28;20450;-68
2022/10/14 07:05:58;;;;;;;7.40;4.53;;;17.60;84.20;;;-142.21;100.00;112049.66;5073392;28;20540;-69
2022/10/14 07:08:26;;;;;;;7.00;5.63;;;17.70;83.40;;;-142.21;100.00;112049.66;5073163;28;20436;-69
2022/10/14 07:10:53;;;;;;;6.87;6.27;;;17.70;83.20;;;-142.21;100.00;112049.66;5073629;28;20479;-69
2022/10/14 07:13:20;;;;;;;8.90;6.50;;;17.70;83.30;;;-142.21;100.00;112049.66;5073407;28;20506;-70
2022/10/14 07:15:49;;;;;;;7.23;5.80;;;17.80;83.60;;;-142.21;100.00;112049.66;5074093;28;20451;-69
2022/10/14 07:18:16;;;;;;;6.30;5.50;;;17.80;83.70;;;-142.21;100.00;112049.66;5085301;28;20470;-68
2022/10/14 07:32:39;;;;;;;6.40;5.33;;;17.90;84.50;;;-142.21;100.00;112049.66;5074483;28;20394;-68
2022/10/14 07:35:07;;;;;;;7.67;5.77;;;17.90;84.20;;;-142.21;100.00;112049.66;5088081;28;20473;-68
2022/10/14 07:52:22;;;;;;;6.33;4.37;;;18.10;84.10;;;-142.21;100.00;112049.66;5088942;28;20735;-69
2022/10/14 07:54:49;;;;;;;4.80;4.40;;;18.10;83.90;;;-142.21;100.00;112049.66;5093272;28;20922;-68
2022/10/14 08:04:38;;;;;;;5.00;4.47;;;18.30;82.80;;;-142.21;100.00;112049.66;5093222;28;20971;-69
2022/10/14 08:07:05;;;;;;;6.30;4.37;;;18.30;82.00;;;-142.21;100.00;112049.66;5092559;28;20970;-69
2022/10/14 08:09:35;;;;;;;8.80;4.53;;;18.30;81.40;;;-142.21;100.00;112049.66;5092914;28;20525;-69
2022/10/14 08:12:02;;;;;;;6.93;4.20;;;18.40;81.40;;;-142.21;100.00;112049.66;5092956;28;20429;-69
2022/10/14 08:14:33;;;;;;;6.50;4.33;;;18.40;81.00;;;-142.21;100.00;112049.66;5092352;28;20481;-69
2022/10/14 08:17:00;;;;;;;4.87;4.37;;;18.40;81.10;;;-142.21;100.00;112049.66;5092288;28;20516;-69
2022/10/14 08:19:27;;;;;;;7.03;3.87;;;18.40;80.90;;;-142.21;100.00;112049.66;5092566;28;20453;-69
2022/10/14 08:21:54;;;;;;;5.43;4.37;;;18.50;80.80;;;-142.21;100.00;112049.66;5092450;28;20437;-69
2022/10/14 08:24:21;;;;;;;6.87;4.50;;;18.60;80.70;;;-142.21;100.00;112049.66;5092733;28;20813;-68
2022/10/14 08:26:53;;;;;;;6.23;4.13;;;18.60;80.60;;;-142.21;100.00;112049.66;5083502;28;20693;-69
2022/10/14 08:29:22;;;;;;;5.33;3.93;;;18.70;80.70;;;-142.21;100.00;112049.66;5072405;28;20475;-69
2022/10/14 08:31:50;;;;;;;8.17;4.30;;;18.70;80.50;;;-142.21;100.00;112049.66;5071259;28;20473;-69
2022/10/14 08:34:19;;;;;;;6.17;4.53;;;18.70;80.50;;;-142.21;100.00;112049.66;5072310;28;20449;-69
2022/10/14 08:36:47;;;;;;;5.70;3.93;;;18.80;81.00;;;-142.21;100.00;112049.66;5071077;28;20451;-70
2022/10/14 08:39:18;;;;;;;6.67;3.63;;;18.80;80.70;;;-142.21;100.00;112049.66;5071555;28;20201;-70
2022/10/14 08:42:11;;;;;;;5.60;4.30;;;18.90;80.50;;;-142.21;100.00;112049.66;5071589;28;20181;-68
2022/10/14 08:44:47;;;;;;;5.00;3.80;;;18.90;79.90;;;-142.21;100.00;112049.66;5071281;28;21150;-69
2022/10/14 08:47:21;;;;;;;7.60;4.40;;;19.00;80.20;;;-142.21;100.00;112049.66;5071496;28;20566;-69
2022/10/14 08:50:01;;;;;;;5.23;3.77;;;19.00;80.20;;;-142.21;100.00;112049.66;5071267;28;20192;-70
2022/10/14 08:52:34;;;;;;;5.00;4.43;;;19.10;79.60;;;-142.21;100.00;112049.66;5071594;28;20185;-69
2022/10/14 08:55:20;;;;;;;4.20;3.67;;;19.20;79.50;;;-142.21;100.00;112049.66;5071770;28;20943;-69
2022/10/14 08:57:58;;;;;;;3.93;3.50;;;19.20;78.70;;;-142.21;100.00;112049.66;5071239;28;20428;-70
2022/10/14 09:00:28;;;;;;;4.80;4.00;;;19.20;78.30;;;-142.21;100.00;112049.66;5075199;28;20592;-69
2022/10/14 09:02:56;;;;;;;4.13;3.73;;;19.30;78.40;;;-142.21;100.00;112049.66;5091182;28;20247;-70
2022/10/14 09:05:26;;;;;;;4.47;3.60;;;19.30;78.30;;;-142.21;100.00;112049.66;5091944;28;20450;-69
2022/10/14 09:07:58;;;;;;;5.73;3.87;;;19.40;78.50;;;-142.21;100.00;112049.66;5091371;28;20266;-69
2022/10/14 09:10:33;;;;;;;5.53;3.90;;;19.40;78.20;;;-142.21;100.00;112049.66;5092043;28;20275;-70
2022/10/14 09:13:14;;;;;;;4.53;4.07;;;19.40;77.00;;;-142.21;100.00;112049.66;5091592;28;20188;-70
2022/10/14 09:15:45;;;;;;;7.93;4.20;;;19.50;77.50;;;-142.21;100.00;112049.66;5091001;28;20200;-70
2022/10/14 09:18:24;;;;;;;4.87;4.27;;;19.50;77.30;;;-142.21;100.00;112049.66;5091208;28;20248;-69
2022/10/14 09:20:53;;;;;;;5.30;3.97;;;19.50;77.30;;;-142.21;100.00;112049.66;5090922;28;20435;-70
2022/10/14 09:23:23;;;;;;;3.80;3.37;;;19.50;76.90;;;-142.21;100.00;112049.66;5091606;28;20470;-70
2022/10/14 09:26:01;;;;;;;7.13;3.83;;;19.50;76.90;;;-142.21;100.00;112049.66;5090999;28;20437;-70
2022/10/14 09:28:37;;;;;;;6.27;4.23;;;19.50;77.00;;;-142.21;100.00;112049.66;5091456;28;20311;-70
2022/10/14 09:31:06;;;;;;;4.47;3.80;;;19.50;76.50;;;-142.21;100.00;112049.66;5039893;28;20204;-70
2022/10/14 09:33:41;;;;;;;5.23;3.90;;;19.50;77.20;;;-142.21;100.00;112049.66;5090815;28;20250;-70
2022/10/14 09:36:17;;;;;;;6.97;4.07;;;19.60;77.40;;;-142.21;100.00;112049.66;5091540;28;20531;-70
2022/10/14 09:38:46;;;;;;;6.27;3.90;;;19.60;77.10;;;-142.21;100.00;112049.66;5071570;28;20240;-70
2022/10/14 09:41:16;;;;;;;4.63;4.13;;;19.60;77.10;;;-142.21;100.00;112049.66;5091560;28;20597;-70
2022/10/14 09:44:21;;;;;;;4.43;3.97;;;19.60;76.90;;;-142.21;100.00;112049.66;5091147;28;20204;-70
2022/10/14 09:46:56;;;;;;;6.30;4.23;;;19.70;77.10;;;-142.21;100.00;112049.66;5090395;28;20682;-70
2022/10/14 09:49:34;;;;;;;5.57;4.47;;;19.80;77.20;;;-142.21;100.00;112049.66;5093600;28;20283;-70
2022/10/14 09:52:02;;;;;;;3.93;3.60;;;19.90;76.20;;;-142.21;100.00;112049.66;5095273;28;20633;-69
2022/10/14 09:54:32;;;;;;;3.77;3.47;;;19.90;76.10;;;-142.21;100.00;112049.66;5095646;28;20832;-71
2022/10/14 09:57:06;;;;;;;6.87;3.83;;;20.00;77.30;;;-142.21;100.00;112049.66;5095285;28;20201;-69
2022/10/14 09:59:55;;;;;;;5.90;4.03;;;20.00;76.30;;;-142.21;100.00;112049.66;5094744;28;20197;-68
2022/10/14 10:02:32;;;;;;;4.93;3.63;;;20.10;76.30;;;-142.21;100.00;112049.66;5074871;28;20211;-70
2022/10/14 10:05:14;;;;;;;8.27;3.80;;;20.10;75.20;;;-142.21;100.00;112049.66;5024344;28;20231;-70
2022/10/14 10:07:41;;;;;;;3.20;2.90;;;20.10;74.70;;;-142.21;97.98;112049.66;5074669;28;20905;-70
2022/10/14 10:10:20;;;;;;;3.50;3.10;;;20.00;72.40;;;-142.21;99.68;112049.66;5074903;28;20204;-69
2022/10/14 10:12:47;;;;;;;4.00;3.10;;;20.00;73.60;;;-142.21;99.64;112049.66;5074263;28;20224;-69
2022/10/14 10:15:21;;;;;;;3.73;2.80;;;20.10;74.00;;;-142.21;100.00;112049.66;5074697;28;20216;-70
2022/10/14 10:17:50;;;;;;;8.07;3.47;;;20.10;74.20;;;-142.21;100.00;112049.66;5082215;28;20596;-70
2022/10/14 10:20:30;;;;;;;3.37;2.97;;;20.10;75.10;;;-142.21;99.57;112049.66;5095170;28;20291;-70
2022/10/14 10:22:59;;;;;;;4.70;2.93;;;20.10;73.80;;;-142.21;99.10;112049.66;5094702;28;20664;-70
2022/10/14 10:25:28;;;;;;;4.13;2.80;;;20.10;73.40;;;-142.21;97.60;112049.66;5094798;28;20261;-69
2022/10/14 10:27:59;;;;;;;3.17;2.80;;;20.10;72.90;;;-142.21;98.66;112049.66;5093746;28;20236;-70
2022/10/14 10:30:32;;;;;;;5.03;3.30;;;20.10;73.10;;;-142.21;98.86;112049.66;5094634;28;20235;-69
2022/10/14 10:33:28;;;;;;;5.80;3.30;;;20.00;73.30;;;-142.21;100.00;112049.66;5094193;28;20279;-69
2022/10/14 10:36:21;;;;;;;5.70;3.30;;;19.80;74.70;;;-142.21;100.00;112049.66;5094089;28;20566;-71
2022/10/14 10:38:59;;;;;;;5.10;3.60;;;19.70;76.70;;;-142.21;100.00;112049.66;5094120;28;20189;-69
2022/10/14 10:41:52;;;;;;;4.13;3.03;;;19.50;78.30;;;-142.21;100.00;112049.66;5094886;28;20548;-69
2022/10/14 10:44:46;;;;;;;4.13;3.30;;;19.50;79.20;;;-142.21;100.00;112049.66;5092254;28;20214;-70